sensor_id;sensor_type;location;lat;lon;timestamp;pressure;altitude;pressure_sealevel;temperature;humidity
62976;BME280;49071;0.000;0.000;2023-01-31T07:05:20;100903.44;;;16.20;37.80
62976;BME280;49071;0.000;0.000;2023-01-31T07:08:20;100905.84;;;16.26;37.62
62976;BME280;49071;0.000;0.000;2023-01-31T07:11:21;100920.41;;;16.33;37.86
62976;BME280;49071;0.000;0.000;2023-01-31T07:14:21;100919.94;;;16.47;37.67
62976;BME280;49071;0.000;0.000;2023-01-31T07:17:21;100922.84;;;16.63;37.25
62976;BME280;49071;0.000;0.000;2023-01-31T07:20:21;100929.34;;;16.76;37.43
62976;BME280;49071;0.000;0.000;2023-01-31T07:23:22;100923.47;;;16.93;37.38
62976;BME280;49071;0.000;0.000;2023-01-31T07:26:22;100924.66;;;17.08;37.18
62976;BME280;49071;0.000;0.000;2023-01-31T07:29:22;100920.56;;;17.22;36.76
62976;BME280;49071;0.000;0.000;2023-01-31T07:32:22;100913.59;;;17.43;36.71
62976;BME280;49071;0.000;0.000;2023-01-31T07:35:27;100914.69;;;17.60;36.31
62976;BME280;49071;0.000;0.000;2023-01-31T07:38:27;100914.03;;;17.77;36.32
62976;BME280;49071;0.000;0.000;2023-01-31T07:41:27;100921.44;;;17.87;36.40
62976;BME280;49071;0.000;0.000;2023-01-31T07:44:27;100912.84;;;18.04;36.45
62976;BME280;49071;0.000;0.000;2023-01-31T07:47:28;100906.41;;;18.11;36.07
62976;BME280;49071;0.000;0.000;2023-01-31T07:50:28;100909.03;;;18.11;36.25
62976;BME280;49071;0.000;0.000;2023-01-31T07:53:29;100913.56;;;18.08;35.91
62976;BME280;49071;0.000;0.000;2023-01-31T07:56:30;100919.00;;;18.03;36.26
62976;BME280;49071;0.000;0.000;2023-01-31T07:59:30;100914.34;;;18.10;36.39
62976;BME280;49071;0.000;0.000;2023-01-31T08:02:30;100911.72;;;18.10;36.21
62976;BME280;49071;0.000;0.000;2023-01-31T08:05:50;100901.88;;;18.15;36.12
62976;BME280;49071;0.000;0.000;2023-01-31T08:08:50;100903.16;;;18.25;36.06
62976;BME280;49071;0.000;0.000;2023-01-31T08:11:51;100904.59;;;18.32;35.69
62976;BME280;49071;0.000;0.000;2023-01-31T08:14:51;100911.13;;;18.42;35.71
62976;BME280;49071;0.000;0.000;2023-01-31T08:17:51;100900.34;;;18.49;35.66
62976;BME280;49071;0.000;0.000;2023-01-31T08:20:51;100898.13;;;18.60;35.61
62976;BME280;49071;0.000;0.000;2023-01-31T08:23:52;100895.94;;;18.70;35.61
62976;BME280;49071;0.000;0.000;2023-01-31T08:26:52;100891.31;;;18.75;35.31
62976;BME280;49071;0.000;0.000;2023-01-31T08:29:52;100889.41;;;18.78;35.10
62976;BME280;49071;0.000;0.000;2023-01-31T08:32:52;100911.22;;;18.80;35.37
62976;BME280;49071;0.000;0.000;2023-01-31T08:35:52;100904.03;;;18.84;35.34
62976;BME280;49071;0.000;0.000;2023-01-31T08:38:53;100907.44;;;18.86;35.26
62976;BME280;49071;0.000;0.000;2023-01-31T08:41:53;100899.34;;;18.91;35.14
62976;BME280;49071;0.000;0.000;2023-01-31T08:44:54;100907.84;;;18.96;34.95
62976;BME280;49071;0.000;0.000;2023-01-31T08:47:54;100897.13;;;19.00;35.14
62976;BME280;49071;0.000;0.000;2023-01-31T08:50:55;100903.81;;;19.07;35.00
62976;BME280;49071;0.000;0.000;2023-01-31T08:53:55;100900.09;;;19.11;35.00
62976;BME280;49071;0.000;0.000;2023-01-31T08:56:55;100895.78;;;19.10;34.90
62976;BME280;49071;0.000;0.000;2023-01-31T08:59:56;100885.47;;;19.06;34.93
62976;BME280;49071;0.000;0.000;2023-01-31T09:02:57;100884.75;;;19.02;34.71
62976;BME280;49071;0.000;0.000;2023-01-31T09:05:58;100886.81;;;18.96;34.80
62976;BME280;49071;0.000;0.000;2023-01-31T09:08:58;100898.50;;;18.90;34.90
62976;BME280;49071;0.000;0.000;2023-01-31T09:11:58;100894.44;;;18.83;34.79
62976;BME280;49071;0.000;0.000;2023-01-31T09:14:58;100893.00;;;18.76;35.17
62976;BME280;49071;0.000;0.000;2023-01-31T09:17:59;100894.28;;;18.67;35.07
62976;BME280;49071;0.000;0.000;2023-01-31T09:21:03;100891.97;;;18.59;35.35
62976;BME280;49071;0.000;0.000;2023-01-31T09:24:04;100882.63;;;18.54;35.31
62976;BME280;49071;0.000;0.000;2023-01-31T09:27:04;100889.00;;;18.48;35.49
62976;BME280;49071;0.000;0.000;2023-01-31T09:30:05;100889.09;;;18.47;35.51
62976;BME280;49071;0.000;0.000;2023-01-31T09:33:05;100891.63;;;18.48;35.26
62976;BME280;49071;0.000;0.000;2023-01-31T09:36:07;100876.72;;;18.49;35.27
62976;BME280;49071;0.000;0.000;2023-01-31T09:39:08;100882.09;;;18.46;35.31
62976;BME280;49071;0.000;0.000;2023-01-31T09:42:16;100878.50;;;18.48;35.60
62976;BME280;49071;0.000;0.000;2023-01-31T09:45:24;100875.09;;;18.46;35.34
62976;BME280;49071;0.000;0.000;2023-01-31T09:48:28;100867.00;;;18.51;35.55
62976;BME280;49071;0.000;0.000;2023-01-31T09:51:30;100865.00;;;18.56;35.34
62976;BME280;49071;0.000;0.000;2023-01-31T09:54:35;100858.91;;;18.55;35.27
62976;BME280;49071;0.000;0.000;2023-01-31T10:00:45;100853.00;;;18.69;35.42
62976;BME280;49071;0.000;0.000;2023-01-31T10:07:33;100842.19;;;18.77;35.44
62976;BME280;49071;0.000;0.000;2023-01-31T10:13:35;100848.53;;;18.71;35.21
62976;BME280;49071;0.000;0.000;2023-01-31T10:16:41;100844.34;;;18.67;35.37
62976;BME280;49071;0.000;0.000;2023-01-31T10:19:54;100841.16;;;18.60;35.48
62976;BME280;49071;0.000;0.000;2023-01-31T10:26:08;100826.69;;;18.52;35.44
62976;BME280;49071;0.000;0.000;2023-01-31T10:29:12;100825.34;;;18.43;35.48
62976;BME280;49071;0.000;0.000;2023-01-31T10:32:20;100812.97;;;18.45;35.53
62976;BME280;49071;0.000;0.000;2023-01-31T10:35:27;100809.72;;;18.40;35.80
62976;BME280;49071;0.000;0.000;2023-01-31T10:38:31;100804.19;;;18.46;35.67
62976;BME280;49071;0.000;0.000;2023-01-31T10:47:48;100794.78;;;18.59;35.37
62976;BME280;49071;0.000;0.000;2023-01-31T10:50:57;100785.91;;;18.62;35.61
62976;BME280;49071;0.000;0.000;2023-01-31T10:57:37;100773.22;;;18.72;35.51
62976;BME280;49071;0.000;0.000;2023-01-31T11:00:37;100771.28;;;18.75;35.65
62976;BME280;49071;0.000;0.000;2023-01-31T11:03:38;100765.75;;;18.81;35.30
62976;BME280;49071;0.000;0.000;2023-01-31T11:06:38;100763.66;;;18.88;35.36
62976;BME280;49071;0.000;0.000;2023-01-31T11:09:39;100766.16;;;18.91;35.43
62976;BME280;49071;0.000;0.000;2023-01-31T11:12:42;100760.91;;;18.91;35.24
62976;BME280;49071;0.000;0.000;2023-01-31T11:15:51;100747.06;;;18.87;35.15
62976;BME280;49071;0.000;0.000;2023-01-31T11:18:52;100737.53;;;18.85;35.06
62976;BME280;49071;0.000;0.000;2023-01-31T11:21:53;100743.88;;;18.81;35.25
62976;BME280;49071;0.000;0.000;2023-01-31T11:24:54;100735.34;;;18.76;35.22
62976;BME280;49071;0.000;0.000;2023-01-31T11:27:56;100722.72;;;18.65;35.26
62976;BME280;49071;0.000;0.000;2023-01-31T11:30:58;100723.72;;;18.62;35.31
62976;BME280;49071;0.000;0.000;2023-01-31T11:34:02;100706.53;;;18.55;35.50
62976;BME280;49071;0.000;0.000;2023-01-31T11:37:04;100695.56;;;18.47;35.45
62976;BME280;49071;0.000;0.000;2023-01-31T11:46:17;100675.09;;;18.36;35.83
62976;BME280;49071;0.000;0.000;2023-01-31T11:52:31;100647.09;;;18.35;35.88
62976;BME280;49071;0.000;0.000;2023-01-31T11:55:34;100647.06;;;18.37;35.78
62976;BME280;49071;0.000;0.000;2023-01-31T11:58:35;100633.00;;;18.38;35.81
62976;BME280;49071;0.000;0.000;2023-01-31T12:01:43;100629.38;;;18.40;36.11
62976;BME280;49071;0.000;0.000;2023-01-31T12:04:44;100619.63;;;18.42;35.76
62976;BME280;49071;0.000;0.000;2023-01-31T12:07:45;100604.59;;;18.46;35.48
62976;BME280;49071;0.000;0.000;2023-01-31T12:10:46;100612.22;;;18.51;35.68
62976;BME280;49071;0.000;0.000;2023-01-31T12:13:48;100610.28;;;18.54;35.58
62976;BME280;49071;0.000;0.000;2023-01-31T12:16:48;100596.75;;;18.62;35.68
62976;BME280;49071;0.000;0.000;2023-01-31T12:26:17;100577.13;;;18.86;35.47
62976;BME280;49071;0.000;0.000;2023-01-31T12:35:51;100563.09;;;18.87;35.41
62976;BME280;49071;0.000;0.000;2023-01-31T12:45:22;100536.59;;;18.75;35.36
62976;BME280;49071;0.000;0.000;2023-01-31T12:48:29;100528.94;;;18.70;35.40
62976;BME280;49071;0.000;0.000;2023-01-31T13:01:15;100504.00;;;18.44;35.33
62976;BME280;49071;0.000;0.000;2023-01-31T13:04:28;100498.91;;;18.41;35.81
62976;BME280;49071;0.000;0.000;2023-01-31T13:07:41;100503.16;;;18.44;35.83
62976;BME280;49071;0.000;0.000;2023-01-31T13:14:03;100496.03;;;18.46;35.40
62976;BME280;49071;0.000;0.000;2023-01-31T13:17:06;100489.88;;;18.47;35.71
62976;BME280;49071;0.000;0.000;2023-01-31T13:23:28;100479.06;;;18.53;35.77
62976;BME280;49071;0.000;0.000;2023-01-31T13:26:31;100464.81;;;18.57;35.74
62976;BME280;49071;0.000;0.000;2023-01-31T13:30:20;100463.56;;;18.64;35.42
62976;BME280;49071;0.000;0.000;2023-01-31T13:32:53;100458.00;;;18.70;35.54
62976;BME280;49071;0.000;0.000;2023-01-31T13:36:05;100453.59;;;18.71;35.45
62976;BME280;49071;0.000;0.000;2023-01-31T13:39:08;100452.69;;;18.72;35.62
62976;BME280;49071;0.000;0.000;2023-01-31T13:42:13;100452.81;;;18.69;35.39
62976;BME280;49071;0.000;0.000;2023-01-31T13:45:27;100439.94;;;18.64;35.47
62976;BME280;49071;0.000;0.000;2023-01-31T13:48:32;100436.47;;;18.63;35.39
62976;BME280;49071;0.000;0.000;2023-01-31T13:51:36;100438.41;;;18.60;35.29
62976;BME280;49071;0.000;0.000;2023-01-31T13:54:39;100437.78;;;18.55;35.60
62976;BME280;49071;0.000;0.000;2023-01-31T13:57:43;100433.63;;;18.51;35.54
62976;BME280;49071;0.000;0.000;2023-01-31T14:00:48;100425.22;;;18.44;35.58
62976;BME280;49071;0.000;0.000;2023-01-31T14:13:18;100404.22;;;18.44;36.14
62976;BME280;49071;0.000;0.000;2023-01-31T14:22:41;100384.75;;;18.64;35.75
62976;BME280;49071;0.000;0.000;2023-01-31T14:25:41;100372.16;;;18.71;35.68
62976;BME280;49071;0.000;0.000;2023-01-31T14:28:42;100390.25;;;18.77;35.72
62976;BME280;49071;0.000;0.000;2023-01-31T14:31:42;100375.06;;;18.82;35.45
62976;BME280;49071;0.000;0.000;2023-01-31T14:34:46;100380.91;;;18.87;35.26
62976;BME280;49071;0.000;0.000;2023-01-31T14:41:08;100374.31;;;18.80;35.20
62976;BME280;49071;0.000;0.000;2023-01-31T14:44:17;100370.06;;;18.77;35.59
62976;BME280;49071;0.000;0.000;2023-01-31T14:57:26;100344.75;;;18.59;35.53
62976;BME280;49071;0.000;0.000;2023-01-31T15:00:31;100341.69;;;18.51;35.50
62976;BME280;49071;0.000;0.000;2023-01-31T15:03:34;100346.34;;;18.46;35.52
62976;BME280;49071;0.000;0.000;2023-01-31T15:06:36;100348.53;;;18.37;35.65
62976;BME280;49071;0.000;0.000;2023-01-31T15:09:39;100341.84;;;18.32;36.03
62976;BME280;49071;0.000;0.000;2023-01-31T15:12:53;100334.91;;;18.31;35.77
62976;BME280;49071;0.000;0.000;2023-01-31T15:15:54;100348.03;;;18.31;35.79
62976;BME280;49071;0.000;0.000;2023-01-31T15:18:59;100342.69;;;18.32;35.95
62976;BME280;49071;0.000;0.000;2023-01-31T15:22:03;100330.44;;;18.33;35.90
62976;BME280;49071;0.000;0.000;2023-01-31T15:25:07;100332.78;;;18.37;36.06
62976;BME280;49071;0.000;0.000;2023-01-31T15:28:08;100336.09;;;18.41;35.96
62976;BME280;49071;0.000;0.000;2023-01-31T15:31:18;100326.28;;;18.45;35.93
62976;BME280;49071;0.000;0.000;2023-01-31T15:34:22;100321.69;;;18.48;35.90
62976;BME280;49071;0.000;0.000;2023-01-31T15:37:25;100321.38;;;18.54;35.91
62976;BME280;49071;0.000;0.000;2023-01-31T15:40:28;100319.31;;;18.59;35.78
62976;BME280;49071;0.000;0.000;2023-01-31T15:43:29;100299.03;;;18.63;35.48
62976;BME280;49071;0.000;0.000;2023-01-31T15:46:30;100296.72;;;18.73;35.43
62976;BME280;49071;0.000;0.000;2023-01-31T15:49:40;100307.56;;;18.82;35.56
62976;BME280;49071;0.000;0.000;2023-01-31T15:52:40;100315.91;;;18.91;35.27
62976;BME280;49071;0.000;0.000;2023-01-31T15:55:40;100311.66;;;18.88;35.13
62976;BME280;49071;0.000;0.000;2023-01-31T15:58:41;100317.75;;;18.88;35.19
62976;BME280;49071;0.000;0.000;2023-01-31T16:01:46;100316.31;;;18.83;35.47
62976;BME280;49071;0.000;0.000;2023-01-31T16:04:46;100319.03;;;18.81;35.20
62976;BME280;49071;0.000;0.000;2023-01-31T16:07:47;100321.81;;;18.78;35.25
62976;BME280;49071;0.000;0.000;2023-01-31T16:10:47;100316.84;;;18.74;35.04
62976;BME280;49071;0.000;0.000;2023-01-31T16:13:48;100318.91;;;18.67;35.33
62976;BME280;49071;0.000;0.000;2023-01-31T16:16:50;100310.44;;;18.62;35.44
62976;BME280;49071;0.000;0.000;2023-01-31T16:19:51;100296.56;;;18.60;35.43
62976;BME280;49071;0.000;0.000;2023-01-31T16:22:55;100293.31;;;18.55;35.42
62976;BME280;49071;0.000;0.000;2023-01-31T16:26:00;100292.75;;;18.50;35.88
62976;BME280;49071;0.000;0.000;2023-01-31T16:29:09;100291.97;;;18.48;35.89
62976;BME280;49071;0.000;0.000;2023-01-31T16:35:21;100304.31;;;18.46;36.09
62976;BME280;49071;0.000;0.000;2023-01-31T16:38:24;100292.06;;;18.46;36.16
62976;BME280;49071;0.000;0.000;2023-01-31T16:41:40;100298.16;;;18.47;36.26
62976;BME280;49071;0.000;0.000;2023-01-31T16:44:43;100296.28;;;18.49;36.24
62976;BME280;49071;0.000;0.000;2023-01-31T16:47:45;100293.41;;;18.53;36.47
62976;BME280;49071;0.000;0.000;2023-01-31T16:50:46;100300.09;;;18.59;36.08
62976;BME280;49071;0.000;0.000;2023-01-31T16:54:11;100299.19;;;18.60;36.20
62976;BME280;49071;0.000;0.000;2023-01-31T17:00:32;100292.84;;;18.80;35.97
62976;BME280;49071;0.000;0.000;2023-01-31T17:03:33;100309.97;;;18.87;35.98
62976;BME280;49071;0.000;0.000;2023-01-31T17:06:34;100301.72;;;18.93;35.97
62976;BME280;49071;0.000;0.000;2023-01-31T17:09:34;100310.19;;;18.98;36.15
62976;BME280;49071;0.000;0.000;2023-01-31T17:12:36;100307.56;;;18.98;35.94
62976;BME280;49071;0.000;0.000;2023-01-31T17:15:38;100311.13;;;18.97;36.04
62976;BME280;49071;0.000;0.000;2023-01-31T17:18:38;100313.84;;;18.96;35.80
62976;BME280;49071;0.000;0.000;2023-01-31T17:21:39;100301.03;;;18.90;35.83
62976;BME280;49071;0.000;0.000;2023-01-31T17:24:40;100293.53;;;18.83;36.07
62976;BME280;49071;0.000;0.000;2023-01-31T17:27:40;100288.59;;;18.77;36.16
62976;BME280;49071;0.000;0.000;2023-01-31T17:30:41;100285.50;;;18.69;35.70
62976;BME280;49071;0.000;0.000;2023-01-31T17:33:41;100315.78;;;18.60;35.79
62976;BME280;49071;0.000;0.000;2023-01-31T17:36:42;100296.78;;;18.55;36.14
62976;BME280;49071;0.000;0.000;2023-01-31T17:39:42;100283.66;;;18.55;36.11
62976;BME280;49071;0.000;0.000;2023-01-31T17:42:42;100275.03;;;18.53;36.41
62976;BME280;49071;0.000;0.000;2023-01-31T17:45:43;100259.44;;;18.50;36.42
62976;BME280;49071;0.000;0.000;2023-01-31T17:48:43;100270.28;;;18.44;36.42
62976;BME280;49071;0.000;0.000;2023-01-31T17:51:43;100263.56;;;18.38;36.71
62976;BME280;49071;0.000;0.000;2023-01-31T17:54:44;100259.53;;;18.33;36.52
62976;BME280;49071;0.000;0.000;2023-01-31T17:57:46;100244.63;;;18.33;37.00
62976;BME280;49071;0.000;0.000;2023-01-31T18:00:46;100240.28;;;18.32;36.90
62976;BME280;49071;0.000;0.000;2023-01-31T18:03:46;100241.91;;;18.35;37.13
62976;BME280;49071;0.000;0.000;2023-01-31T18:06:47;100243.63;;;18.36;37.04
62976;BME280;49071;0.000;0.000;2023-01-31T18:09:48;100247.66;;;18.41;36.82
62976;BME280;49071;0.000;0.000;2023-01-31T18:12:49;100241.28;;;18.46;36.96
62976;BME280;49071;0.000;0.000;2023-01-31T18:15:49;100225.38;;;18.49;36.99
62976;BME280;49071;0.000;0.000;2023-01-31T18:18:49;100206.59;;;18.56;37.18
62976;BME280;49071;0.000;0.000;2023-01-31T18:21:50;100216.66;;;18.64;36.92
62976;BME280;49071;0.000;0.000;2023-01-31T18:24:50;100205.66;;;18.73;36.76
62976;BME280;49071;0.000;0.000;2023-01-31T18:27:50;100198.16;;;18.81;36.80
62976;BME280;49071;0.000;0.000;2023-01-31T18:30:50;100201.00;;;18.93;36.82
62976;BME280;49071;0.000;0.000;2023-01-31T18:33:51;100187.69;;;18.96;36.82
62976;BME280;49071;0.000;0.000;2023-01-31T18:36:51;100191.94;;;18.98;36.78
62976;BME280;49071;0.000;0.000;2023-01-31T18:39:51;100186.94;;;18.94;36.62
62976;BME280;49071;0.000;0.000;2023-01-31T18:42:52;100185.16;;;18.94;36.52
62976;BME280;49071;0.000;0.000;2023-01-31T18:45:52;100188.97;;;18.88;36.31
62976;BME280;49071;0.000;0.000;2023-01-31T18:48:52;100196.09;;;18.86;36.51
62976;BME280;49071;0.000;0.000;2023-01-31T18:51:52;100181.56;;;18.81;36.59
62976;BME280;49071;0.000;0.000;2023-01-31T18:54:52;100189.44;;;18.81;36.91
62976;BME280;49071;0.000;0.000;2023-01-31T18:57:53;100190.56;;;18.77;36.63
62976;BME280;49071;0.000;0.000;2023-01-31T19:00:53;100176.75;;;18.73;36.82
62976;BME280;49071;0.000;0.000;2023-01-31T19:03:53;100177.06;;;18.67;36.83
62976;BME280;49071;0.000;0.000;2023-01-31T19:06:54;100176.56;;;18.60;36.78
62976;BME280;49071;0.000;0.000;2023-01-31T19:09:54;100169.03;;;18.54;36.75
62976;BME280;49071;0.000;0.000;2023-01-31T19:12:55;100161.50;;;18.48;37.08
62976;BME280;49071;0.000;0.000;2023-01-31T19:15:59;100159.16;;;18.44;37.08
62976;BME280;49071;0.000;0.000;2023-01-31T19:18:59;100167.47;;;18.36;37.27
62976;BME280;49071;0.000;0.000;2023-01-31T19:21:59;100162.38;;;18.33;37.32
62976;BME280;49071;0.000;0.000;2023-01-31T19:25:00;100158.03;;;18.32;37.42
62976;BME280;49071;0.000;0.000;2023-01-31T19:28:01;100165.00;;;18.33;37.51
62976;BME280;49071;0.000;0.000;2023-01-31T19:31:02;100155.19;;;18.36;37.32
62976;BME280;49071;0.000;0.000;2023-01-31T19:34:03;100153.13;;;18.41;37.71
62976;BME280;49071;0.000;0.000;2023-01-31T19:37:05;100147.63;;;18.46;37.67
62976;BME280;49071;0.000;0.000;2023-01-31T19:40:05;100140.25;;;18.53;37.81
62976;BME280;49071;0.000;0.000;2023-01-31T19:43:05;100152.16;;;18.58;37.54
62976;BME280;49071;0.000;0.000;2023-01-31T19:46:06;100142.31;;;18.62;37.44
62976;BME280;49071;0.000;0.000;2023-01-31T19:49:06;100136.53;;;18.71;37.37
62976;BME280;49071;0.000;0.000;2023-01-31T19:52:06;100121.84;;;18.83;36.87
62976;BME280;49071;0.000;0.000;2023-01-31T19:55:07;100162.34;;;18.95;37.19
62976;BME280;49071;0.000;0.000;2023-01-31T19:58:07;100160.88;;;19.05;36.74
62976;BME280;49071;0.000;0.000;2023-01-31T20:01:11;100173.47;;;19.14;36.83
62976;BME280;49071;0.000;0.000;2023-01-31T20:04:12;100176.84;;;19.16;36.83
62976;BME280;49071;0.000;0.000;2023-01-31T20:07:12;100205.75;;;19.16;37.17
62976;BME280;49071;0.000;0.000;2023-01-31T20:10:12;100177.78;;;19.15;36.74
62976;BME280;49071;0.000;0.000;2023-01-31T20:13:13;100197.13;;;19.14;36.67
62976;BME280;49071;0.000;0.000;2023-01-31T20:16:13;100199.09;;;19.10;36.64
62976;BME280;49071;0.000;0.000;2023-01-31T20:19:14;100182.75;;;19.05;36.90
62976;BME280;49071;0.000;0.000;2023-01-31T20:22:14;100164.69;;;18.99;36.93
62976;BME280;49071;0.000;0.000;2023-01-31T20:25:16;100179.97;;;18.93;36.98
62976;BME280;49071;0.000;0.000;2023-01-31T20:28:16;100195.00;;;18.91;36.76
62976;BME280;49071;0.000;0.000;2023-01-31T20:31:17;100195.19;;;18.87;37.17
62976;BME280;49071;0.000;0.000;2023-01-31T20:34:18;100194.59;;;18.82;37.14
62976;BME280;49071;0.000;0.000;2023-01-31T20:37:18;100214.19;;;18.77;37.21
62976;BME280;49071;0.000;0.000;2023-01-31T20:40:18;100202.22;;;18.71;37.48
62976;BME280;49071;0.000;0.000;2023-01-31T20:43:19;100209.88;;;18.60;37.28
62976;BME280;49071;0.000;0.000;2023-01-31T20:46:20;100211.16;;;18.53;37.50
62976;BME280;49071;0.000;0.000;2023-01-31T20:49:20;100213.28;;;18.46;37.34
62976;BME280;49071;0.000;0.000;2023-01-31T20:52:21;100211.84;;;18.40;37.67
62976;BME280;49071;0.000;0.000;2023-01-31T20:55:23;100216.31;;;18.38;37.39
